createdAt,value
2018-07-06T00:01:50.970Z,15.90
2018-07-06T00:04:29.753Z,15.90
2018-07-06T00:07:08.725Z,15.90
2018-07-06T00:09:47.784Z,15.90
2018-07-06T00:12:26.686Z,16.00
2018-07-06T00:15:05.496Z,16.00
2018-07-06T00:17:44.217Z,16.00
2018-07-06T00:20:22.888Z,16.00
2018-07-06T00:23:01.521Z,15.90
2018-07-06T00:25:40.379Z,16.00
2018-07-06T00:28:19.263Z,16.00
2018-07-06T00:30:58.065Z,16.00
2018-07-06T00:33:36.645Z,16.10
2018-07-06T00:36:15.501Z,16.00
2018-07-06T00:38:54.105Z,16.00
2018-07-06T00:41:32.770Z,16.00
2018-07-06T00:44:11.445Z,15.90
2018-07-06T00:46:50.253Z,15.90
2018-07-06T00:49:29.145Z,16.00
2018-07-06T00:52:07.909Z,16.00
2018-07-06T00:56:16.132Z,16.10
2018-07-06T00:58:55.106Z,16.00
2018-07-06T01:01:34.076Z,16.00
2018-07-06T01:04:12.888Z,16.00
2018-07-06T01:06:51.529Z,16.00
2018-07-06T01:09:30.334Z,16.00
2018-07-06T01:13:19.061Z,16.10
2018-07-06T01:15:58.250Z,16.10
2018-07-06T01:18:37.117Z,16.10
2018-07-06T01:21:15.843Z,16.00
2018-07-06T01:23:54.851Z,16.10
2018-07-06T01:26:33.653Z,16.10
2018-07-06T01:29:12.440Z,16.00
2018-07-06T01:31:51.187Z,16.00
2018-07-06T01:34:29.993Z,16.00
2018-07-06T01:37:08.738Z,16.10
2018-07-06T01:39:47.515Z,16.00
2018-07-06T01:42:26.248Z,16.00
2018-07-06T01:45:05.003Z,16.00
2018-07-06T01:47:43.928Z,16.00
2018-07-06T01:50:22.669Z,16.00
2018-07-06T01:53:01.245Z,16.10
2018-07-06T01:55:39.909Z,16.00
2018-07-06T01:58:18.765Z,16.10
2018-07-06T02:00:57.708Z,16.10
2018-07-06T02:03:36.362Z,16.00
2018-07-06T02:06:15.204Z,16.00
2018-07-06T02:08:53.921Z,16.00
2018-07-06T02:11:32.978Z,15.90
2018-07-06T02:14:11.672Z,15.90
2018-07-06T02:16:50.601Z,15.90
2018-07-06T02:19:29.307Z,15.90
2018-07-06T02:22:07.996Z,15.90
2018-07-06T02:24:46.847Z,16.00
2018-07-06T02:27:25.580Z,16.00
2018-07-06T02:30:04.384Z,16.00
2018-07-06T02:32:43.173Z,16.00
2018-07-06T02:35:22.067Z,16.00
2018-07-06T02:38:00.852Z,15.90
2018-07-06T02:43:12.581Z,16.00
2018-07-06T02:45:51.413Z,16.00
2018-07-06T02:48:30.165Z,16.00
2018-07-06T02:51:09.149Z,16.00
2018-07-06T02:53:47.908Z,15.90
2018-07-06T02:56:26.656Z,16.00
2018-07-06T02:59:05.466Z,16.10
2018-07-06T03:01:44.118Z,16.00
2018-07-06T03:04:22.748Z,16.00
2018-07-06T03:07:01.724Z,16.00
2018-07-06T03:12:14.184Z,15.90
2018-07-06T03:14:53.096Z,15.90
2018-07-06T03:17:31.868Z,16.00
2018-07-06T03:20:10.708Z,16.00
2018-07-06T03:22:49.380Z,15.80
2018-07-06T03:25:28.152Z,15.80
2018-07-06T03:28:07.157Z,15.90
2018-07-06T03:30:45.962Z,15.80
2018-07-06T03:33:24.571Z,15.80
2018-07-06T03:36:03.435Z,15.80
2018-07-06T03:38:42.276Z,15.80
2018-07-06T03:41:21.174Z,15.80
2018-07-06T03:44:00.137Z,15.80
2018-07-06T03:46:39.042Z,15.80
2018-07-06T03:49:18.337Z,15.80
2018-07-06T03:51:57.104Z,15.80
2018-07-06T03:54:36.123Z,15.80
2018-07-06T03:57:14.802Z,15.90
2018-07-06T03:59:53.565Z,15.80
2018-07-06T04:05:05.349Z,15.90
2018-07-06T04:07:44.190Z,15.90
2018-07-06T04:10:22.902Z,15.90
2018-07-06T04:13:01.722Z,15.80
2018-07-06T04:15:40.623Z,15.70
2018-07-06T04:18:19.341Z,15.70
2018-07-06T04:20:58.369Z,15.70
2018-07-06T04:23:37.325Z,15.70
2018-07-06T04:26:16.065Z,15.70
2018-07-06T04:28:55.047Z,15.70
2018-07-06T04:31:34.089Z,15.70
2018-07-06T04:34:12.685Z,15.70
2018-07-06T04:36:51.537Z,15.60
2018-07-06T04:39:30.451Z,15.60
2018-07-06T04:42:09.457Z,15.60
2018-07-06T04:44:48.244Z,15.60
2018-07-06T04:47:26.965Z,15.50
2018-07-06T04:50:05.704Z,15.60
2018-07-06T04:52:44.572Z,15.60
2018-07-06T04:55:23.318Z,15.60
2018-07-06T04:58:02.292Z,15.60
2018-07-06T05:00:41.121Z,15.70
2018-07-06T05:03:20.234Z,15.70
2018-07-06T05:05:59.148Z,15.80
2018-07-06T05:08:38.021Z,15.80
2018-07-06T05:11:17.056Z,15.90
2018-07-06T05:13:55.873Z,15.90
2018-07-06T05:16:34.598Z,15.90
2018-07-06T05:19:13.377Z,15.90
2018-07-06T05:21:52.395Z,15.90
2018-07-06T05:24:31.344Z,15.90
2018-07-06T05:27:10.199Z,16.00
2018-07-06T05:29:49.129Z,16.10
2018-07-06T05:32:28.052Z,16.10
2018-07-06T05:35:06.937Z,16.10
2018-07-06T05:37:45.664Z,16.10
2018-07-06T05:40:24.396Z,16.10
2018-07-06T05:43:03.295Z,16.10
2018-07-06T05:45:42.205Z,16.10
2018-07-06T05:48:21.077Z,16.10
2018-07-06T05:50:59.745Z,16.20
2018-07-06T05:53:38.344Z,16.30
2018-07-06T05:56:17.217Z,16.30
2018-07-06T05:58:56.052Z,16.30
2018-07-06T06:01:35.223Z,16.20
2018-07-06T06:04:14.198Z,16.30
2018-07-06T06:06:53.194Z,16.40
2018-07-06T06:09:20.520Z,16.30
2018-07-06T06:11:47.806Z,16.20
2018-07-06T06:14:15.340Z,16.20
2018-07-06T06:16:42.849Z,16.30
2018-07-06T06:19:10.427Z,16.30
2018-07-06T06:21:37.694Z,16.30
2018-07-06T06:24:04.990Z,16.30
2018-07-06T06:26:32.343Z,16.30
2018-07-06T06:28:59.760Z,16.30
2018-07-06T06:31:28.814Z,16.10
2018-07-06T06:33:57.732Z,16.10
2018-07-06T06:36:25.209Z,16.10
2018-07-06T06:38:52.596Z,16.10
2018-07-06T06:41:20.048Z,16.20
2018-07-06T06:43:47.505Z,16.20
2018-07-06T06:46:14.822Z,16.10
2018-07-06T06:48:42.461Z,16.20
2018-07-06T06:51:11.033Z,16.20
2018-07-06T06:56:05.959Z,16.20
2018-07-06T07:01:00.663Z,16.20
2018-07-06T07:03:27.910Z,16.10
2018-07-06T07:05:55.195Z,16.20
2018-07-06T07:08:22.666Z,16.10
2018-07-06T07:12:41.253Z,16.20
2018-07-06T07:15:08.564Z,16.20
2018-07-06T07:17:35.972Z,16.20
2018-07-06T07:20:03.247Z,16.10
2018-07-06T07:22:30.654Z,16.20
2018-07-06T07:27:25.312Z,16.20
2018-07-06T07:29:53.239Z,16.30
2018-07-06T07:32:20.640Z,16.40
2018-07-06T07:34:48.494Z,16.40
2018-07-06T07:37:15.809Z,16.50
2018-07-06T07:39:43.090Z,16.40
2018-07-06T07:42:10.363Z,16.40
2018-07-06T07:44:37.678Z,16.60
2018-07-06T07:47:04.935Z,16.60
2018-07-06T07:49:32.417Z,16.60
2018-07-06T07:52:12.122Z,16.80
2018-07-06T07:54:43.807Z,16.60
2018-07-06T07:57:11.181Z,16.60
2018-07-06T07:59:38.810Z,16.50
2018-07-06T08:02:06.221Z,16.50
2018-07-06T08:04:33.441Z,16.70
2018-07-06T08:07:01.093Z,16.60
2018-07-06T08:09:28.040Z,16.40
2018-07-06T08:11:56.331Z,16.30
2018-07-06T08:14:23.310Z,16.50
2018-07-06T08:16:50.147Z,16.60
2018-07-06T08:19:16.888Z,16.70
2018-07-06T08:21:43.730Z,17.00
2018-07-06T08:24:10.954Z,17.00
2018-07-06T08:26:38.236Z,17.20
2018-07-06T08:29:05.592Z,17.30
2018-07-06T08:31:33.223Z,17.30
2018-07-06T08:34:12.187Z,17.40
2018-07-06T08:37:48.881Z,17.60
2018-07-06T08:40:18.219Z,18.00
2018-07-06T08:42:47.804Z,18.10
2018-07-06T08:45:15.130Z,18.10
2018-07-06T08:47:42.890Z,18.40
2018-07-06T08:50:10.712Z,18.70
2018-07-06T08:52:38.879Z,18.90
2018-07-06T08:55:06.445Z,19.10
2018-07-06T08:57:35.518Z,19.00
2018-07-06T09:00:02.831Z,18.90
2018-07-06T09:02:30.387Z,18.90
2018-07-06T09:04:58.583Z,18.40
2018-07-06T09:07:26.052Z,18.40
2018-07-06T09:09:54.125Z,18.50
2018-07-06T09:12:21.431Z,18.60
2018-07-06T09:14:48.840Z,18.70
2018-07-06T09:17:17.068Z,18.60
2018-07-06T09:19:45.028Z,18.60
2018-07-06T09:22:12.796Z,18.80
2018-07-06T09:24:40.937Z,18.80
2018-07-06T09:27:09.353Z,18.90
2018-07-06T09:29:36.608Z,18.80
2018-07-06T09:34:31.108Z,18.80
2018-07-06T09:36:58.357Z,18.70
2018-07-06T09:39:25.633Z,18.60
2018-07-06T09:41:52.866Z,18.70
2018-07-06T09:44:20.221Z,18.80
2018-07-06T09:46:47.481Z,18.80
2018-07-06T09:49:14.730Z,18.90
2018-07-06T09:51:41.985Z,19.00
2018-07-06T09:54:09.355Z,19.30
2018-07-06T09:56:36.678Z,19.30
2018-07-06T09:59:03.992Z,19.30
2018-07-06T10:01:31.265Z,19.50
2018-07-06T10:03:58.473Z,19.40
2018-07-06T10:06:26.540Z,19.40
2018-07-06T10:08:54.308Z,19.50
2018-07-06T10:13:49.456Z,19.40
2018-07-06T10:16:16.746Z,19.50
2018-07-06T10:18:43.959Z,19.40
2018-07-06T10:21:12.682Z,19.20
2018-07-06T10:26:07.298Z,19.50
2018-07-06T10:30:49.115Z,19.60
2018-07-06T10:33:16.544Z,19.60
2018-07-06T10:35:45.119Z,20.00
2018-07-06T10:38:12.392Z,20.20
2018-07-06T10:40:39.695Z,19.80
2018-07-06T10:43:07.017Z,19.70
2018-07-06T10:45:34.344Z,19.60
2018-07-06T10:48:01.628Z,19.70
2018-07-06T10:50:28.902Z,19.70
2018-07-06T10:52:56.161Z,19.70
2018-07-06T10:55:23.478Z,19.70
2018-07-06T10:57:50.901Z,20.10
2018-07-06T11:00:18.141Z,19.90
2018-07-06T11:02:45.420Z,20.00
2018-07-06T11:05:13.187Z,20.00
2018-07-06T11:07:40.428Z,19.90
2018-07-06T11:10:07.736Z,20.00
2018-07-06T11:12:34.950Z,19.90
2018-07-06T11:15:02.213Z,19.90
2018-07-06T11:17:28.948Z,20.20
2018-07-06T11:22:23.116Z,20.80
2018-07-06T11:24:50.352Z,21.40
2018-07-06T11:27:17.705Z,21.70
2018-07-06T11:29:44.999Z,21.70
2018-07-06T11:32:12.338Z,21.30
2018-07-06T11:34:39.529Z,21.90
2018-07-06T11:37:06.792Z,21.50
2018-07-06T11:39:34.047Z,21.90
2018-07-06T11:42:01.399Z,22.60
2018-07-06T11:44:28.855Z,21.80
2018-07-06T11:46:56.064Z,21.80
2018-07-06T11:49:22.879Z,22.40
2018-07-06T11:51:49.805Z,23.10
2018-07-06T11:54:16.665Z,22.70
2018-07-06T11:56:44.007Z,22.70
2018-07-06T11:59:11.303Z,22.70
2018-07-06T12:01:38.614Z,23.00
2018-07-06T12:04:06.090Z,23.40
2018-07-06T12:09:00.526Z,23.80
2018-07-06T12:11:27.869Z,23.70
2018-07-06T12:13:55.194Z,23.70
2018-07-06T12:16:22.473Z,23.60
2018-07-06T12:18:49.730Z,24.00
2018-07-06T12:21:17.095Z,23.20
2018-07-06T12:23:44.453Z,24.10
2018-07-06T12:26:11.733Z,25.10
2018-07-06T12:28:40.518Z,25.70
2018-07-06T12:31:07.977Z,24.80
2018-07-06T12:33:35.284Z,24.40
2018-07-06T12:36:02.593Z,24.90
2018-07-06T12:38:30.041Z,25.60
2018-07-06T12:40:57.438Z,25.50
2018-07-06T12:43:24.661Z,26.20
2018-07-06T12:45:51.973Z,25.90
2018-07-06T12:48:19.383Z,25.50
2018-07-06T12:50:46.608Z,26.10
2018-07-06T12:53:13.829Z,26.10
2018-07-06T12:55:41.134Z,26.50
2018-07-06T12:58:08.424Z,26.80
2018-07-06T13:00:35.761Z,28.00
2018-07-06T13:03:04.959Z,27.50
2018-07-06T13:05:32.172Z,26.40
2018-07-06T13:07:59.430Z,25.50
2018-07-06T13:10:26.730Z,24.80
2018-07-06T13:12:53.981Z,25.40
2018-07-06T13:15:21.275Z,25.90
2018-07-06T13:17:48.604Z,26.10
2018-07-06T13:20:15.869Z,26.50
2018-07-06T13:22:44.404Z,26.80
2018-07-06T13:25:11.720Z,27.60
2018-07-06T13:27:39.029Z,26.90
2018-07-06T13:30:06.485Z,27.00
2018-07-06T13:32:33.842Z,26.30
2018-07-06T13:35:01.445Z,27.10
2018-07-06T13:37:28.837Z,26.70
2018-07-06T13:39:56.109Z,28.30
2018-07-06T13:42:23.517Z,27.60
2018-07-06T13:44:51.034Z,26.50
2018-07-06T13:47:18.420Z,25.60
2018-07-06T13:49:46.756Z,25.20
2018-07-06T13:52:14.009Z,26.20
2018-07-06T13:54:41.303Z,26.90
2018-07-06T13:57:08.518Z,28.00
2018-07-06T13:59:36.384Z,27.90
2018-07-06T14:02:03.188Z,27.80
2018-07-06T14:04:30.411Z,28.60
2018-07-06T14:06:57.707Z,28.60
2018-07-06T14:09:25.047Z,27.30
2018-07-06T14:11:52.949Z,26.70
2018-07-06T14:14:20.223Z,26.70
2018-07-06T14:19:08.761Z,26.30
2018-07-06T14:21:35.992Z,27.30
2018-07-06T14:24:03.240Z,27.00
2018-07-06T14:26:30.639Z,28.70
2018-07-06T14:28:58.157Z,28.00
2018-07-06T14:31:25.349Z,27.50
2018-07-06T14:33:52.806Z,27.20
2018-07-06T14:36:20.100Z,27.00
2018-07-06T14:38:47.686Z,27.20
2018-07-06T14:41:15.258Z,27.80
2018-07-06T14:43:42.516Z,27.00
2018-07-06T14:46:09.888Z,29.20
2018-07-06T14:48:37.136Z,27.60
2018-07-06T14:51:04.495Z,27.40
2018-07-06T14:53:31.756Z,27.70
2018-07-06T14:55:59.035Z,26.40
2018-07-06T14:58:25.794Z,27.90
2018-07-06T15:00:52.600Z,27.00
2018-07-06T15:03:19.908Z,28.00
2018-07-06T15:05:47.207Z,28.60
2018-07-06T15:08:14.553Z,27.80
2018-07-06T15:10:41.887Z,26.10
2018-07-06T15:13:09.286Z,26.30
2018-07-06T15:15:36.849Z,26.60
2018-07-06T15:18:04.201Z,27.30
2018-07-06T15:20:31.507Z,26.10
2018-07-06T15:22:59.773Z,26.50
2018-07-06T15:25:27.200Z,27.30
2018-07-06T15:27:54.469Z,28.20
2018-07-06T15:30:21.756Z,26.40
2018-07-06T15:32:49.194Z,26.40
2018-07-06T15:35:16.450Z,25.60
2018-07-06T15:37:43.702Z,26.60
2018-07-06T15:40:11.164Z,26.10
2018-07-06T15:45:06.218Z,25.40
2018-07-06T15:47:33.499Z,25.60
2018-07-06T15:50:00.790Z,25.80
2018-07-06T15:52:27.564Z,26.80
2018-07-06T15:54:54.319Z,26.50
2018-07-06T15:57:21.671Z,26.00
2018-07-06T15:59:49.008Z,26.00
2018-07-06T16:02:16.325Z,25.40
2018-07-06T16:04:43.585Z,25.20
2018-07-06T16:07:10.840Z,24.80
2018-07-06T16:09:38.132Z,25.40
2018-07-06T16:12:05.384Z,26.20
2018-07-06T16:14:32.901Z,26.20
2018-07-06T16:17:00.182Z,25.30
2018-07-06T16:19:27.099Z,24.50
2018-07-06T16:21:54.349Z,24.20
2018-07-06T16:24:21.792Z,25.70
2018-07-06T16:26:51.107Z,25.00
2018-07-06T16:29:19.298Z,24.10
2018-07-06T16:31:46.604Z,25.00
2018-07-06T16:34:13.842Z,24.10
2018-07-06T16:36:42.207Z,24.70
2018-07-06T16:39:09.457Z,24.80
2018-07-06T16:41:36.729Z,24.00
2018-07-06T16:44:05.238Z,24.50
2018-07-06T16:46:32.409Z,24.10
2018-07-06T16:48:59.671Z,24.40
2018-07-06T16:51:26.918Z,25.10
2018-07-06T16:53:54.297Z,24.00
2018-07-06T16:56:21.624Z,24.70
2018-07-06T16:58:49.322Z,24.50
2018-07-06T17:01:16.634Z,25.00
2018-07-06T17:03:43.873Z,24.20
2018-07-06T17:06:11.142Z,23.90
2018-07-06T17:08:38.393Z,23.30
2018-07-06T17:11:05.701Z,23.70
2018-07-06T17:13:32.958Z,23.60
2018-07-06T17:16:00.252Z,24.20
2018-07-06T17:18:27.633Z,24.20
2018-07-06T17:20:54.965Z,24.80
2018-07-06T17:23:21.884Z,24.50
2018-07-06T17:25:48.802Z,24.70
2018-07-06T17:28:16.103Z,24.60
2018-07-06T17:30:43.402Z,22.20
2018-07-06T17:33:10.805Z,21.90
2018-07-06T17:35:38.054Z,20.90
2018-07-06T17:38:05.361Z,20.70
2018-07-06T17:40:32.696Z,20.00
2018-07-06T17:43:00.113Z,19.70
2018-07-06T17:45:27.558Z,19.50
2018-07-06T17:47:54.894Z,19.10
2018-07-06T17:50:22.304Z,18.60
2018-07-06T17:52:49.649Z,18.60
2018-07-06T17:55:16.902Z,18.50
2018-07-06T17:57:44.176Z,18.20
2018-07-06T18:00:11.580Z,18.10
2018-07-06T18:02:38.914Z,18.10
2018-07-06T18:05:06.629Z,17.60
2018-07-06T18:07:33.909Z,17.60
2018-07-06T18:10:01.198Z,17.40
2018-07-06T18:12:28.528Z,17.20
2018-07-06T18:14:55.923Z,17.00
2018-07-06T18:17:23.301Z,16.90
2018-07-06T18:19:50.733Z,16.80
2018-07-06T18:22:18.150Z,16.80
2018-07-06T18:24:46.147Z,16.60
2018-07-06T18:27:13.437Z,16.50
2018-07-06T18:29:40.918Z,16.60
2018-07-06T18:32:08.214Z,16.50
2018-07-06T18:34:35.572Z,16.30
2018-07-06T18:37:02.922Z,16.20
2018-07-06T18:39:30.285Z,16.20
2018-07-06T18:41:57.587Z,16.20
2018-07-06T18:44:24.895Z,16.10
2018-07-06T18:46:52.240Z,16.10
2018-07-06T18:49:20.525Z,16.10
2018-07-06T18:51:47.904Z,16.10
2018-07-06T18:54:15.222Z,16.00
2018-07-06T18:56:42.549Z,15.90
2018-07-06T18:59:09.786Z,15.90
2018-07-06T19:01:37.089Z,15.90
2018-07-06T19:04:04.814Z,15.90
2018-07-06T19:06:32.063Z,15.80
2018-07-06T19:08:59.345Z,15.70
2018-07-06T19:11:26.666Z,15.80
2018-07-06T19:13:54.061Z,15.70
2018-07-06T19:16:21.466Z,15.60
2018-07-06T19:18:48.770Z,15.60
2018-07-06T19:21:16.090Z,15.50
2018-07-06T19:23:43.465Z,15.50
2018-07-06T19:26:10.742Z,15.40
2018-07-06T19:28:38.031Z,15.40
2018-07-06T19:31:05.308Z,15.40
2018-07-06T19:33:32.684Z,15.40
2018-07-06T19:36:00.017Z,15.30
2018-07-06T19:38:27.242Z,15.40
2018-07-06T19:40:54.540Z,15.30
2018-07-06T19:43:21.847Z,15.30
2018-07-06T19:45:49.147Z,15.30
2018-07-06T19:48:16.414Z,15.20
2018-07-06T19:50:43.727Z,15.20
2018-07-06T19:53:11.026Z,15.20
2018-07-06T19:55:38.322Z,15.20
2018-07-06T19:58:05.817Z,15.20
2018-07-06T20:00:33.132Z,15.20
2018-07-06T20:03:00.369Z,15.20
2018-07-06T20:05:27.652Z,15.10
2018-07-06T20:07:55.167Z,15.00
2018-07-06T20:10:22.508Z,15.10
2018-07-06T20:12:49.850Z,15.00
2018-07-06T20:15:17.185Z,15.10
2018-07-06T20:17:44.475Z,15.00
2018-07-06T20:20:11.724Z,15.00
2018-07-06T20:22:39.046Z,15.00
2018-07-06T20:27:33.662Z,14.90
2018-07-06T20:30:00.918Z,14.90
2018-07-06T20:32:28.184Z,14.90
2018-07-06T20:34:55.785Z,14.80
2018-07-06T20:37:23.265Z,14.80
2018-07-06T20:39:50.596Z,14.80
2018-07-06T20:42:17.830Z,14.80
2018-07-06T20:44:45.089Z,14.80
2018-07-06T20:47:12.496Z,14.70
2018-07-06T20:49:39.806Z,14.70
2018-07-06T20:52:07.092Z,14.60
2018-07-06T20:54:34.400Z,14.60
2018-07-06T20:57:02.487Z,14.70
2018-07-06T20:59:29.989Z,14.60
2018-07-06T21:01:57.230Z,14.60
2018-07-06T21:04:24.585Z,14.50
2018-07-06T21:06:52.844Z,14.60
2018-07-06T21:09:20.198Z,14.50
2018-07-06T21:11:47.519Z,14.50
2018-07-06T21:14:14.756Z,14.40
2018-07-06T21:16:42.061Z,14.40
2018-07-06T21:19:09.333Z,14.40
2018-07-06T21:21:36.616Z,14.30
2018-07-06T21:24:04.050Z,14.30
2018-07-06T21:26:31.316Z,14.30
2018-07-06T21:28:58.525Z,14.30
2018-07-06T21:31:25.794Z,14.20
2018-07-06T21:33:53.081Z,14.20
2018-07-06T21:36:20.490Z,14.20
2018-07-06T21:38:47.795Z,14.20
2018-07-06T21:41:15.086Z,14.20
2018-07-06T21:43:42.389Z,14.20
2018-07-06T21:46:09.689Z,14.10
2018-07-06T21:48:37.012Z,14.10
2018-07-06T21:51:04.358Z,14.10
2018-07-06T21:53:32.262Z,14.00
2018-07-06T21:55:59.636Z,14.00
2018-07-06T21:58:26.943Z,14.00
2018-07-06T22:00:54.227Z,14.00
2018-07-06T22:03:21.680Z,13.90
2018-07-06T22:05:49.345Z,13.90
2018-07-06T22:08:16.649Z,13.90
2018-07-06T22:10:44.026Z,13.90
2018-07-06T22:13:11.338Z,13.80
2018-07-06T22:15:43.680Z,13.80
2018-07-06T22:18:12.154Z,13.80
2018-07-06T22:20:39.565Z,13.80
2018-07-06T22:23:06.825Z,13.80
2018-07-06T22:25:34.217Z,13.70
2018-07-06T22:28:01.548Z,13.70
2018-07-06T22:30:28.823Z,13.70
2018-07-06T22:32:56.110Z,13.70
2018-07-06T22:35:24.079Z,13.70
2018-07-06T22:37:51.473Z,13.60
2018-07-06T22:40:18.752Z,13.60
2018-07-06T22:42:46.065Z,13.60
2018-07-06T22:45:13.761Z,13.60
2018-07-06T22:47:41.226Z,13.60
2018-07-06T22:50:09.053Z,13.60
2018-07-06T22:52:36.452Z,13.60
2018-07-06T22:55:04.045Z,13.60
2018-07-06T22:57:31.395Z,13.60
2018-07-06T22:59:58.615Z,13.60
2018-07-06T23:02:25.870Z,13.60
2018-07-06T23:04:53.145Z,13.60
2018-07-06T23:07:20.434Z,13.60
2018-07-06T23:09:47.712Z,13.50
2018-07-06T23:12:14.952Z,13.50
2018-07-06T23:14:42.220Z,13.50
2018-07-06T23:17:09.603Z,13.50
2018-07-06T23:19:36.849Z,13.60
2018-07-06T23:24:32.978Z,13.50
2018-07-06T23:27:00.219Z,13.50
2018-07-06T23:29:27.453Z,13.60
2018-07-06T23:31:54.727Z,13.50
2018-07-06T23:34:22.058Z,13.50
2018-07-06T23:36:49.290Z,13.50
2018-07-06T23:39:16.486Z,13.50
2018-07-06T23:41:44.071Z,13.50
2018-07-06T23:44:11.298Z,13.50
2018-07-06T23:46:38.549Z,13.40
2018-07-06T23:49:05.801Z,13.50
2018-07-06T23:51:33.210Z,13.50
2018-07-06T23:54:00.614Z,13.50
2018-07-06T23:56:27.867Z,13.40
2018-07-06T23:58:55.115Z,13.50
